sensor_id;sensor_type;location;lat;lon;timestamp;temperature;humidity
51661;DHT22;37741;49.748;8.490;2022-07-29T00:01:46;24.60;43.50
51661;DHT22;37741;49.748;8.490;2022-07-29T00:04:12;24.60;43.50
51661;DHT22;37741;49.748;8.490;2022-07-29T00:06:37;24.60;43.50
51661;DHT22;37741;49.748;8.490;2022-07-29T00:09:03;24.60;43.50
51661;DHT22;37741;49.748;8.490;2022-07-29T00:11:28;24.50;43.50
51661;DHT22;37741;49.748;8.490;2022-07-29T00:13:54;24.50;43.50
51661;DHT22;37741;49.748;8.490;2022-07-29T00:16:19;24.40;43.50
51661;DHT22;37741;49.748;8.490;2022-07-29T00:18:45;24.40;43.70
51661;DHT22;37741;49.748;8.490;2022-07-29T00:21:10;24.40;43.70
51661;DHT22;37741;49.748;8.490;2022-07-29T00:23:36;24.40;43.80
51661;DHT22;37741;49.748;8.490;2022-07-29T00:26:01;24.40;44.00
51661;DHT22;37741;49.748;8.490;2022-07-29T00:28:27;24.30;44.00
51661;DHT22;37741;49.748;8.490;2022-07-29T00:30:52;24.30;44.00
51661;DHT22;37741;49.748;8.490;2022-07-29T00:33:18;24.30;44.10
51661;DHT22;37741;49.748;8.490;2022-07-29T00:35:43;24.20;44.20
51661;DHT22;37741;49.748;8.490;2022-07-29T00:38:10;24.20;44.20
51661;DHT22;37741;49.748;8.490;2022-07-29T00:40:36;24.20;44.30
51661;DHT22;37741;49.748;8.490;2022-07-29T00:43:01;24.20;44.50
51661;DHT22;37741;49.748;8.490;2022-07-29T00:45:27;24.10;44.40
51661;DHT22;37741;49.748;8.490;2022-07-29T00:47:52;24.10;44.50
51661;DHT22;37741;49.748;8.490;2022-07-29T00:50:18;24.10;44.50
51661;DHT22;37741;49.748;8.490;2022-07-29T00:52:43;24.00;45.10
51661;DHT22;37741;49.748;8.490;2022-07-29T00:55:10;24.00;44.50
51661;DHT22;37741;49.748;8.490;2022-07-29T00:57:36;24.00;44.50
51661;DHT22;37741;49.748;8.490;2022-07-29T01:00:03;24.00;44.50
51661;DHT22;37741;49.748;8.490;2022-07-29T01:02:29;24.00;44.50
51661;DHT22;37741;49.748;8.490;2022-07-29T01:04:54;23.90;44.50
51661;DHT22;37741;49.748;8.490;2022-07-29T01:07:22;23.90;44.50
51661;DHT22;37741;49.748;8.490;2022-07-29T01:09:48;23.80;44.40
51661;DHT22;37741;49.748;8.490;2022-07-29T01:12:15;23.80;44.40
51661;DHT22;37741;49.748;8.490;2022-07-29T01:14:41;23.80;44.40
51661;DHT22;37741;49.748;8.490;2022-07-29T01:17:12;23.80;44.50
51661;DHT22;37741;49.748;8.490;2022-07-29T01:27:32;23.70;44.50
51661;DHT22;37741;49.748;8.490;2022-07-29T01:30:03;23.70;44.70
51661;DHT22;37741;49.748;8.490;2022-07-29T01:32:31;23.70;44.70
51661;DHT22;37741;49.748;8.490;2022-07-29T01:35:04;23.70;44.70
51661;DHT22;37741;49.748;8.490;2022-07-29T01:37:43;23.60;44.70
51661;DHT22;37741;49.748;8.490;2022-07-29T01:40:19;23.60;44.70
51661;DHT22;37741;49.748;8.490;2022-07-29T01:42:48;23.60;44.70
51661;DHT22;37741;49.748;8.490;2022-07-29T01:45:26;23.60;44.70
51661;DHT22;37741;49.748;8.490;2022-07-29T01:48:02;23.60;44.70
51661;DHT22;37741;49.748;8.490;2022-07-29T01:50:40;23.70;44.80
51661;DHT22;37741;49.748;8.490;2022-07-29T01:53:09;23.60;44.70
51661;DHT22;37741;49.748;8.490;2022-07-29T01:55:38;23.60;44.70
51661;DHT22;37741;49.748;8.490;2022-07-29T01:58:04;23.60;44.70
51661;DHT22;37741;49.748;8.490;2022-07-29T02:00:31;23.60;44.80
51661;DHT22;37741;49.748;8.490;2022-07-29T02:02:57;23.60;44.80
51661;DHT22;37741;49.748;8.490;2022-07-29T02:05:23;23.50;45.40
51661;DHT22;37741;49.748;8.490;2022-07-29T02:07:52;23.60;44.80
51661;DHT22;37741;49.748;8.490;2022-07-29T02:10:18;23.50;44.70
51661;DHT22;37741;49.748;8.490;2022-07-29T02:12:45;23.50;44.80
51661;DHT22;37741;49.748;8.490;2022-07-29T02:15:11;23.50;44.80
51661;DHT22;37741;49.748;8.490;2022-07-29T02:17:41;23.50;44.90
51661;DHT22;37741;49.748;8.490;2022-07-29T02:20:08;23.50;44.90
51661;DHT22;37741;49.748;8.490;2022-07-29T02:22:35;23.50;44.90
51661;DHT22;37741;49.748;8.490;2022-07-29T02:25:02;23.50;44.90
51661;DHT22;37741;49.748;8.490;2022-07-29T02:27:28;23.40;44.90
51661;DHT22;37741;49.748;8.490;2022-07-29T02:29:54;23.40;44.90
51661;DHT22;37741;49.748;8.490;2022-07-29T02:32:21;23.40;44.90
51661;DHT22;37741;49.748;8.490;2022-07-29T02:34:47;23.40;45.00
51661;DHT22;37741;49.748;8.490;2022-07-29T02:37:14;23.30;44.90
51661;DHT22;37741;49.748;8.490;2022-07-29T02:39:42;23.40;45.00
51661;DHT22;37741;49.748;8.490;2022-07-29T02:42:10;23.30;45.00
51661;DHT22;37741;49.748;8.490;2022-07-29T02:44:36;23.30;45.00
51661;DHT22;37741;49.748;8.490;2022-07-29T02:49:47;23.30;45.20
51661;DHT22;37741;49.748;8.490;2022-07-29T02:52:21;23.20;45.20
51661;DHT22;37741;49.748;8.490;2022-07-29T02:57:46;23.10;45.30
51661;DHT22;37741;49.748;8.490;2022-07-29T03:00:13;23.10;45.40
51661;DHT22;37741;49.748;8.490;2022-07-29T03:02:42;23.10;45.40
51661;DHT22;37741;49.748;8.490;2022-07-29T03:05:09;23.00;45.50
51661;DHT22;37741;49.748;8.490;2022-07-29T03:07:36;23.00;45.50
51661;DHT22;37741;49.748;8.490;2022-07-29T03:10:02;22.90;45.60
51661;DHT22;37741;49.748;8.490;2022-07-29T03:12:28;23.00;45.70
51661;DHT22;37741;49.748;8.490;2022-07-29T03:14:54;22.90;45.60
51661;DHT22;37741;49.748;8.490;2022-07-29T03:17:20;22.80;45.70
51661;DHT22;37741;49.748;8.490;2022-07-29T03:19:46;22.80;45.70
51661;DHT22;37741;49.748;8.490;2022-07-29T03:22:12;22.80;45.80
51661;DHT22;37741;49.748;8.490;2022-07-29T03:24:38;22.80;45.80
51661;DHT22;37741;49.748;8.490;2022-07-29T03:27:04;22.80;45.80
51661;DHT22;37741;49.748;8.490;2022-07-29T03:29:30;22.70;45.80
51661;DHT22;37741;49.748;8.490;2022-07-29T03:31:56;22.70;45.80
51661;DHT22;37741;49.748;8.490;2022-07-29T03:34:22;22.70;45.90
51661;DHT22;37741;49.748;8.490;2022-07-29T03:36:48;22.70;45.90
51661;DHT22;37741;49.748;8.490;2022-07-29T03:39:20;22.70;46.00
51661;DHT22;37741;49.748;8.490;2022-07-29T03:41:47;22.60;45.90
51661;DHT22;37741;49.748;8.490;2022-07-29T03:44:13;22.60;45.90
51661;DHT22;37741;49.748;8.490;2022-07-29T03:46:40;22.60;46.00
51661;DHT22;37741;49.748;8.490;2022-07-29T03:49:06;22.60;46.00
51661;DHT22;37741;49.748;8.490;2022-07-29T03:51:33;22.50;45.90
51661;DHT22;37741;49.748;8.490;2022-07-29T03:54:03;22.50;46.00
51661;DHT22;37741;49.748;8.490;2022-07-29T03:56:29;22.50;45.90
51661;DHT22;37741;49.748;8.490;2022-07-29T03:58:56;22.50;46.00
51661;DHT22;37741;49.748;8.490;2022-07-29T04:01:22;22.50;46.00
51661;DHT22;37741;49.748;8.490;2022-07-29T04:03:48;22.50;46.10
51661;DHT22;37741;49.748;8.490;2022-07-29T04:06:13;22.40;46.00
51661;DHT22;37741;49.748;8.490;2022-07-29T04:08:39;22.40;46.00
51661;DHT22;37741;49.748;8.490;2022-07-29T04:11:05;22.40;46.10
51661;DHT22;37741;49.748;8.490;2022-07-29T04:13:31;22.40;46.10
51661;DHT22;37741;49.748;8.490;2022-07-29T04:15:57;22.40;46.10
51661;DHT22;37741;49.748;8.490;2022-07-29T04:18:23;22.30;46.10
51661;DHT22;37741;49.748;8.490;2022-07-29T04:20:48;22.30;46.20
51661;DHT22;37741;49.748;8.490;2022-07-29T04:23:14;22.30;46.20
51661;DHT22;37741;49.748;8.490;2022-07-29T04:25:40;22.30;46.20
51661;DHT22;37741;49.748;8.490;2022-07-29T04:28:06;22.20;46.20
51661;DHT22;37741;49.748;8.490;2022-07-29T04:30:32;22.20;46.90
51661;DHT22;37741;49.748;8.490;2022-07-29T04:32:59;22.20;46.30
51661;DHT22;37741;49.748;8.490;2022-07-29T04:35:26;22.20;46.40
51661;DHT22;37741;49.748;8.490;2022-07-29T04:37:51;22.20;46.40
51661;DHT22;37741;49.748;8.490;2022-07-29T04:40:17;22.20;46.50
51661;DHT22;37741;49.748;8.490;2022-07-29T04:42:42;22.20;46.40
51661;DHT22;37741;49.748;8.490;2022-07-29T04:45:08;22.20;46.40
51661;DHT22;37741;49.748;8.490;2022-07-29T04:47:34;22.20;46.40
51661;DHT22;37741;49.748;8.490;2022-07-29T04:49:59;22.20;46.40
51661;DHT22;37741;49.748;8.490;2022-07-29T04:52:25;22.20;46.40
51661;DHT22;37741;49.748;8.490;2022-07-29T04:54:50;22.20;46.40
51661;DHT22;37741;49.748;8.490;2022-07-29T04:57:16;22.20;46.40
51661;DHT22;37741;49.748;8.490;2022-07-29T04:59:42;22.20;46.40
51661;DHT22;37741;49.748;8.490;2022-07-29T05:02:07;22.20;46.40
51661;DHT22;37741;49.748;8.490;2022-07-29T05:04:33;22.20;46.40
51661;DHT22;37741;49.748;8.490;2022-07-29T05:06:58;22.20;46.40
51661;DHT22;37741;49.748;8.490;2022-07-29T05:09:24;22.20;46.40
51661;DHT22;37741;49.748;8.490;2022-07-29T05:11:49;22.20;46.40
51661;DHT22;37741;49.748;8.490;2022-07-29T05:14:15;22.20;46.50
51661;DHT22;37741;49.748;8.490;2022-07-29T05:16:40;22.20;46.50
51661;DHT22;37741;49.748;8.490;2022-07-29T05:19:07;22.10;46.40
51661;DHT22;37741;49.748;8.490;2022-07-29T05:21:33;22.10;46.50
51661;DHT22;37741;49.748;8.490;2022-07-29T05:23:58;22.10;46.50
51661;DHT22;37741;49.748;8.490;2022-07-29T05:26:24;22.10;46.50
51661;DHT22;37741;49.748;8.490;2022-07-29T05:28:49;22.20;46.60
51661;DHT22;37741;49.748;8.490;2022-07-29T05:31:15;22.10;46.50
51661;DHT22;37741;49.748;8.490;2022-07-29T05:33:41;22.10;46.60
51661;DHT22;37741;49.748;8.490;2022-07-29T05:36:06;22.10;46.60
51661;DHT22;37741;49.748;8.490;2022-07-29T05:38:32;22.10;46.60
51661;DHT22;37741;49.748;8.490;2022-07-29T05:40:58;22.10;46.70
51661;DHT22;37741;49.748;8.490;2022-07-29T05:43:24;22.10;46.70
51661;DHT22;37741;49.748;8.490;2022-07-29T05:45:49;22.10;46.70
51661;DHT22;37741;49.748;8.490;2022-07-29T05:48:15;22.10;46.70
51661;DHT22;37741;49.748;8.490;2022-07-29T05:50:40;22.10;46.70
51661;DHT22;37741;49.748;8.490;2022-07-29T05:53:06;22.10;46.80
51661;DHT22;37741;49.748;8.490;2022-07-29T05:55:31;22.10;46.80
51661;DHT22;37741;49.748;8.490;2022-07-29T05:57:57;22.10;46.90
51661;DHT22;37741;49.748;8.490;2022-07-29T06:00:22;22.00;46.90
51661;DHT22;37741;49.748;8.490;2022-07-29T06:02:48;22.00;47.00
51661;DHT22;37741;49.748;8.490;2022-07-29T06:05:13;22.00;47.00
51661;DHT22;37741;49.748;8.490;2022-07-29T06:07:40;21.90;47.00
51661;DHT22;37741;49.748;8.490;2022-07-29T06:10:06;22.00;47.10
51661;DHT22;37741;49.748;8.490;2022-07-29T06:12:31;22.00;47.20
51661;DHT22;37741;49.748;8.490;2022-07-29T06:14:57;22.00;47.20
51661;DHT22;37741;49.748;8.490;2022-07-29T06:17:23;22.10;47.20
51661;DHT22;37741;49.748;8.490;2022-07-29T06:19:48;22.10;47.20
51661;DHT22;37741;49.748;8.490;2022-07-29T06:22:17;22.20;47.20
51661;DHT22;37741;49.748;8.490;2022-07-29T06:24:42;22.20;47.30
51661;DHT22;37741;49.748;8.490;2022-07-29T06:27:09;22.20;47.10
51661;DHT22;37741;49.748;8.490;2022-07-29T06:29:35;22.30;47.00
51661;DHT22;37741;49.748;8.490;2022-07-29T06:32:00;22.30;47.00
51661;DHT22;37741;49.748;8.490;2022-07-29T06:34:27;22.40;47.00
51661;DHT22;37741;49.748;8.490;2022-07-29T06:36:52;22.40;46.90
51661;DHT22;37741;49.748;8.490;2022-07-29T06:39:18;22.40;46.80
51661;DHT22;37741;49.748;8.490;2022-07-29T06:41:46;22.50;46.80
51661;DHT22;37741;49.748;8.490;2022-07-29T06:44:11;22.50;46.80
51661;DHT22;37741;49.748;8.490;2022-07-29T06:46:37;22.50;46.80
51661;DHT22;37741;49.748;8.490;2022-07-29T06:49:02;22.50;46.80
51661;DHT22;37741;49.748;8.490;2022-07-29T06:51:28;22.50;46.80
51661;DHT22;37741;49.748;8.490;2022-07-29T06:53:54;22.40;46.90
51661;DHT22;37741;49.748;8.490;2022-07-29T06:56:19;22.40;46.90
51661;DHT22;37741;49.748;8.490;2022-07-29T06:58:45;22.40;47.00
51661;DHT22;37741;49.748;8.490;2022-07-29T07:01:10;22.40;47.20
51661;DHT22;37741;49.748;8.490;2022-07-29T07:03:36;22.30;47.20
51661;DHT22;37741;49.748;8.490;2022-07-29T07:06:01;22.30;47.20
51661;DHT22;37741;49.748;8.490;2022-07-29T07:08:27;22.30;47.40
51661;DHT22;37741;49.748;8.490;2022-07-29T07:10:52;22.30;47.40
51661;DHT22;37741;49.748;8.490;2022-07-29T07:13:18;22.30;47.50
51661;DHT22;37741;49.748;8.490;2022-07-29T07:15:44;22.40;47.50
51661;DHT22;37741;49.748;8.490;2022-07-29T07:18:10;22.40;47.50
51661;DHT22;37741;49.748;8.490;2022-07-29T07:20:36;22.40;47.60
51661;DHT22;37741;49.748;8.490;2022-07-29T07:23:01;22.40;47.60
51661;DHT22;37741;49.748;8.490;2022-07-29T07:25:27;22.40;47.50
51661;DHT22;37741;49.748;8.490;2022-07-29T07:27:53;22.50;47.50
51661;DHT22;37741;49.748;8.490;2022-07-29T07:30:18;22.50;48.20
51661;DHT22;37741;49.748;8.490;2022-07-29T07:32:44;22.50;49.20
51661;DHT22;37741;49.748;8.490;2022-07-29T07:35:10;22.60;50.00
51661;DHT22;37741;49.748;8.490;2022-07-29T07:37:35;22.50;49.90
51661;DHT22;37741;49.748;8.490;2022-07-29T07:40:01;22.60;50.40
51661;DHT22;37741;49.748;8.490;2022-07-29T07:42:27;22.50;50.70
51661;DHT22;37741;49.748;8.490;2022-07-29T07:44:53;22.60;51.10
51661;DHT22;37741;49.748;8.490;2022-07-29T07:47:19;22.60;52.60
51661;DHT22;37741;49.748;8.490;2022-07-29T07:49:51;22.60;53.80
51661;DHT22;37741;49.748;8.490;2022-07-29T07:52:17;22.70;53.80
51661;DHT22;37741;49.748;8.490;2022-07-29T07:54:43;22.70;53.40
51661;DHT22;37741;49.748;8.490;2022-07-29T07:57:10;22.80;53.40
51661;DHT22;37741;49.748;8.490;2022-07-29T07:59:35;22.80;53.70
51661;DHT22;37741;49.748;8.490;2022-07-29T08:02:01;22.90;54.10
51661;DHT22;37741;49.748;8.490;2022-07-29T08:04:27;23.00;54.90
51661;DHT22;37741;49.748;8.490;2022-07-29T08:06:52;23.00;55.00
51661;DHT22;37741;49.748;8.490;2022-07-29T08:09:22;23.10;55.50
51661;DHT22;37741;49.748;8.490;2022-07-29T08:11:48;23.10;55.30
51661;DHT22;37741;49.748;8.490;2022-07-29T08:14:14;23.10;55.10
51661;DHT22;37741;49.748;8.490;2022-07-29T08:16:40;23.20;54.70
51661;DHT22;37741;49.748;8.490;2022-07-29T08:19:06;23.10;55.50
51661;DHT22;37741;49.748;8.490;2022-07-29T08:21:31;23.20;56.10
51661;DHT22;37741;49.748;8.490;2022-07-29T08:23:57;23.20;55.90
51661;DHT22;37741;49.748;8.490;2022-07-29T08:26:41;23.20;55.90
51661;DHT22;37741;49.748;8.490;2022-07-29T08:29:07;23.30;55.50
51661;DHT22;37741;49.748;8.490;2022-07-29T08:31:33;23.30;56.20
51661;DHT22;37741;49.748;8.490;2022-07-29T08:33:58;23.30;55.70
51661;DHT22;37741;49.748;8.490;2022-07-29T08:36:25;23.40;56.60
51661;DHT22;37741;49.748;8.490;2022-07-29T08:38:51;23.40;56.90
51661;DHT22;37741;49.748;8.490;2022-07-29T08:41:17;23.40;56.70
51661;DHT22;37741;49.748;8.490;2022-07-29T08:43:44;23.50;57.30
51661;DHT22;37741;49.748;8.490;2022-07-29T08:46:10;23.50;57.60
51661;DHT22;37741;49.748;8.490;2022-07-29T08:48:35;23.60;57.40
51661;DHT22;37741;49.748;8.490;2022-07-29T08:51:01;23.60;57.70
51661;DHT22;37741;49.748;8.490;2022-07-29T08:53:26;23.60;57.90
51661;DHT22;37741;49.748;8.490;2022-07-29T08:55:53;23.70;58.00
51661;DHT22;37741;49.748;8.490;2022-07-29T08:58:19;23.70;58.00
51661;DHT22;37741;49.748;8.490;2022-07-29T09:00:48;23.70;57.90
51661;DHT22;37741;49.748;8.490;2022-07-29T09:03:16;23.80;58.30
51661;DHT22;37741;49.748;8.490;2022-07-29T09:05:43;23.70;57.90
51661;DHT22;37741;49.748;8.490;2022-07-29T09:08:10;23.80;57.50
51661;DHT22;37741;49.748;8.490;2022-07-29T09:10:36;23.70;57.50
51661;DHT22;37741;49.748;8.490;2022-07-29T09:13:01;23.70;58.30
51661;DHT22;37741;49.748;8.490;2022-07-29T09:15:28;23.70;57.80
51661;DHT22;37741;49.748;8.490;2022-07-29T09:17:53;23.70;57.80
51661;DHT22;37741;49.748;8.490;2022-07-29T09:20:21;23.70;57.50
51661;DHT22;37741;49.748;8.490;2022-07-29T09:22:50;23.70;57.60
51661;DHT22;37741;49.748;8.490;2022-07-29T09:25:37;23.70;58.30
51661;DHT22;37741;49.748;8.490;2022-07-29T09:28:07;23.70;58.00
51661;DHT22;37741;49.748;8.490;2022-07-29T09:30:33;23.70;58.00
51661;DHT22;37741;49.748;8.490;2022-07-29T09:32:59;23.70;57.90
51661;DHT22;37741;49.748;8.490;2022-07-29T09:35:26;23.70;57.80
51661;DHT22;37741;49.748;8.490;2022-07-29T09:37:52;23.70;57.90
51661;DHT22;37741;49.748;8.490;2022-07-29T09:40:21;23.70;57.80
51661;DHT22;37741;49.748;8.490;2022-07-29T09:42:47;23.60;57.60
51661;DHT22;37741;49.748;8.490;2022-07-29T09:45:13;23.60;57.50
51661;DHT22;37741;49.748;8.490;2022-07-29T09:47:50;23.60;57.30
51661;DHT22;37741;49.748;8.490;2022-07-29T09:50:16;23.60;57.30
51661;DHT22;37741;49.748;8.490;2022-07-29T09:52:48;23.60;57.30
51661;DHT22;37741;49.748;8.490;2022-07-29T09:55:15;23.60;57.40
51661;DHT22;37741;49.748;8.490;2022-07-29T09:57:41;23.60;57.30
51661;DHT22;37741;49.748;8.490;2022-07-29T10:00:11;23.60;57.10
51661;DHT22;37741;49.748;8.490;2022-07-29T10:02:37;23.60;57.10
51661;DHT22;37741;49.748;8.490;2022-07-29T10:05:04;23.60;57.20
51661;DHT22;37741;49.748;8.490;2022-07-29T10:07:42;23.60;57.50
51661;DHT22;37741;49.748;8.490;2022-07-29T10:10:09;23.70;56.80
51661;DHT22;37741;49.748;8.490;2022-07-29T10:12:34;23.60;56.70
51661;DHT22;37741;49.748;8.490;2022-07-29T10:15:13;23.70;56.70
51661;DHT22;37741;49.748;8.490;2022-07-29T10:17:40;23.70;56.90
51661;DHT22;37741;49.748;8.490;2022-07-29T10:20:06;23.70;57.10
51661;DHT22;37741;49.748;8.490;2022-07-29T10:22:32;23.80;56.80
51661;DHT22;37741;49.748;8.490;2022-07-29T10:24:58;23.80;56.50
51661;DHT22;37741;49.748;8.490;2022-07-29T10:27:24;23.80;56.70
51661;DHT22;37741;49.748;8.490;2022-07-29T10:29:50;23.80;56.60
51661;DHT22;37741;49.748;8.490;2022-07-29T10:37:37;23.90;56.20
51661;DHT22;37741;49.748;8.490;2022-07-29T10:40:17;24.00;56.20
51661;DHT22;37741;49.748;8.490;2022-07-29T10:43:09;24.00;56.30
51661;DHT22;37741;49.748;8.490;2022-07-29T10:45:40;24.00;55.90
51661;DHT22;37741;49.748;8.490;2022-07-29T10:48:05;24.10;56.20
51661;DHT22;37741;49.748;8.490;2022-07-29T10:53:16;24.10;55.80
51661;DHT22;37741;49.748;8.490;2022-07-29T10:55:42;24.20;56.20
51661;DHT22;37741;49.748;8.490;2022-07-29T10:58:13;24.20;56.00
51661;DHT22;37741;49.748;8.490;2022-07-29T11:00:40;24.30;55.70
51661;DHT22;37741;49.748;8.490;2022-07-29T11:03:05;24.30;55.90
51661;DHT22;37741;49.748;8.490;2022-07-29T11:05:37;24.40;55.50
51661;DHT22;37741;49.748;8.490;2022-07-29T11:08:16;24.40;55.40
51661;DHT22;37741;49.748;8.490;2022-07-29T11:10:44;24.50;55.10
51661;DHT22;37741;49.748;8.490;2022-07-29T11:13:09;24.60;54.90
51661;DHT22;37741;49.748;8.490;2022-07-29T11:15:53;24.60;54.80
51661;DHT22;37741;49.748;8.490;2022-07-29T11:18:19;24.70;54.70
51661;DHT22;37741;49.748;8.490;2022-07-29T11:20:46;24.80;54.70
51661;DHT22;37741;49.748;8.490;2022-07-29T11:23:32;24.90;56.00
51661;DHT22;37741;49.748;8.490;2022-07-29T11:26:19;25.00;55.20
51661;DHT22;37741;49.748;8.490;2022-07-29T11:47:19;25.50;53.70
51661;DHT22;37741;49.748;8.490;2022-07-29T11:49:45;25.50;53.40
51661;DHT22;37741;49.748;8.490;2022-07-29T11:52:10;25.50;53.30
51661;DHT22;37741;49.748;8.490;2022-07-29T11:54:36;25.60;53.30
51661;DHT22;37741;49.748;8.490;2022-07-29T11:57:02;25.60;53.20
51661;DHT22;37741;49.748;8.490;2022-07-29T11:59:27;25.70;53.10
51661;DHT22;37741;49.748;8.490;2022-07-29T12:01:54;25.70;53.20
51661;DHT22;37741;49.748;8.490;2022-07-29T12:04:19;25.80;53.00
51661;DHT22;37741;49.748;8.490;2022-07-29T12:06:51;25.80;52.40
51661;DHT22;37741;49.748;8.490;2022-07-29T12:09:18;25.80;52.00
51661;DHT22;37741;49.748;8.490;2022-07-29T12:11:44;25.90;52.00
51661;DHT22;37741;49.748;8.490;2022-07-29T12:14:24;25.90;52.20
51661;DHT22;37741;49.748;8.490;2022-07-29T12:16:49;25.90;53.00
51661;DHT22;37741;49.748;8.490;2022-07-29T12:19:14;25.90;52.30
51661;DHT22;37741;49.748;8.490;2022-07-29T12:21:47;25.90;52.30
51661;DHT22;37741;49.748;8.490;2022-07-29T12:24:13;26.00;52.30
51661;DHT22;37741;49.748;8.490;2022-07-29T12:26:51;26.00;52.20
51661;DHT22;37741;49.748;8.490;2022-07-29T12:29:17;26.00;52.10
51661;DHT22;37741;49.748;8.490;2022-07-29T12:31:43;26.10;52.00
51661;DHT22;37741;49.748;8.490;2022-07-29T12:34:12;26.20;52.10
51661;DHT22;37741;49.748;8.490;2022-07-29T12:36:39;26.20;51.90
51661;DHT22;37741;49.748;8.490;2022-07-29T12:39:05;26.20;51.80
51661;DHT22;37741;49.748;8.490;2022-07-29T12:41:31;26.20;51.60
51661;DHT22;37741;49.748;8.490;2022-07-29T12:43:56;26.30;51.50
51661;DHT22;37741;49.748;8.490;2022-07-29T12:46:22;26.30;51.30
51661;DHT22;37741;49.748;8.490;2022-07-29T12:48:50;26.40;51.30
51661;DHT22;37741;49.748;8.490;2022-07-29T12:51:16;26.40;51.30
51661;DHT22;37741;49.748;8.490;2022-07-29T12:54:00;26.50;51.00
51661;DHT22;37741;49.748;8.490;2022-07-29T12:56:26;26.60;50.90
51661;DHT22;37741;49.748;8.490;2022-07-29T12:58:52;26.70;50.50
51661;DHT22;37741;49.748;8.490;2022-07-29T13:01:18;26.80;50.40
51661;DHT22;37741;49.748;8.490;2022-07-29T13:03:49;26.80;49.70
51661;DHT22;37741;49.748;8.490;2022-07-29T13:06:35;26.90;49.90
51661;DHT22;37741;49.748;8.490;2022-07-29T13:09:11;26.90;49.80
51661;DHT22;37741;49.748;8.490;2022-07-29T13:11:44;27.00;49.70
51661;DHT22;37741;49.748;8.490;2022-07-29T13:14:11;27.00;49.60
51661;DHT22;37741;49.748;8.490;2022-07-29T13:16:40;27.10;49.70
51661;DHT22;37741;49.748;8.490;2022-07-29T13:19:31;27.10;49.70
51661;DHT22;37741;49.748;8.490;2022-07-29T13:21:57;27.10;49.50
51661;DHT22;37741;49.748;8.490;2022-07-29T13:24:23;27.20;49.60
51661;DHT22;37741;49.748;8.490;2022-07-29T13:26:48;27.30;49.40
51661;DHT22;37741;49.748;8.490;2022-07-29T13:29:14;27.30;49.20
51661;DHT22;37741;49.748;8.490;2022-07-29T13:31:39;27.40;49.00
51661;DHT22;37741;49.748;8.490;2022-07-29T13:34:05;27.50;48.90
51661;DHT22;37741;49.748;8.490;2022-07-29T13:36:31;27.50;49.10
51661;DHT22;37741;49.748;8.490;2022-07-29T13:38:57;27.50;48.80
51661;DHT22;37741;49.748;8.490;2022-07-29T13:41:23;27.50;48.50
51661;DHT22;37741;49.748;8.490;2022-07-29T13:43:48;27.60;48.50
51661;DHT22;37741;49.748;8.490;2022-07-29T13:46:14;27.60;48.30
51661;DHT22;37741;49.748;8.490;2022-07-29T13:48:39;27.70;48.10
51661;DHT22;37741;49.748;8.490;2022-07-29T13:51:05;27.70;48.00
51661;DHT22;37741;49.748;8.490;2022-07-29T13:53:30;27.80;48.20
51661;DHT22;37741;49.748;8.490;2022-07-29T13:55:56;27.90;48.20
51661;DHT22;37741;49.748;8.490;2022-07-29T13:58:22;27.90;48.00
51661;DHT22;37741;49.748;8.490;2022-07-29T14:00:47;28.00;48.00
51661;DHT22;37741;49.748;8.490;2022-07-29T14:03:13;28.10;47.90
51661;DHT22;37741;49.748;8.490;2022-07-29T14:05:38;28.10;47.70
51661;DHT22;37741;49.748;8.490;2022-07-29T14:08:04;28.10;47.50
51661;DHT22;37741;49.748;8.490;2022-07-29T14:10:29;28.20;47.60
51661;DHT22;37741;49.748;8.490;2022-07-29T14:12:55;28.20;47.40
51661;DHT22;37741;49.748;8.490;2022-07-29T14:15:20;28.20;47.20
51661;DHT22;37741;49.748;8.490;2022-07-29T14:17:48;28.30;46.90
51661;DHT22;37741;49.748;8.490;2022-07-29T14:20:14;28.30;47.20
51661;DHT22;37741;49.748;8.490;2022-07-29T14:22:40;28.30;46.90
51661;DHT22;37741;49.748;8.490;2022-07-29T14:25:07;28.30;46.70
51661;DHT22;37741;49.748;8.490;2022-07-29T14:27:33;28.30;46.40
51661;DHT22;37741;49.748;8.490;2022-07-29T14:29:58;28.40;46.40
51661;DHT22;37741;49.748;8.490;2022-07-29T14:32:24;28.40;46.50
51661;DHT22;37741;49.748;8.490;2022-07-29T14:34:50;28.40;46.30
51661;DHT22;37741;49.748;8.490;2022-07-29T14:37:15;28.40;46.50
51661;DHT22;37741;49.748;8.490;2022-07-29T14:39:41;28.50;46.30
51661;DHT22;37741;49.748;8.490;2022-07-29T14:42:07;28.50;45.90
51661;DHT22;37741;49.748;8.490;2022-07-29T14:44:35;28.60;45.80
51661;DHT22;37741;49.748;8.490;2022-07-29T14:47:01;28.60;45.80
51661;DHT22;37741;49.748;8.490;2022-07-29T14:49:27;28.70;45.90
51661;DHT22;37741;49.748;8.490;2022-07-29T14:51:54;28.70;45.70
51661;DHT22;37741;49.748;8.490;2022-07-29T14:57:23;28.80;45.60
51661;DHT22;37741;49.748;8.490;2022-07-29T14:59:49;28.90;45.20
51661;DHT22;37741;49.748;8.490;2022-07-29T15:02:15;28.90;44.90
51661;DHT22;37741;49.748;8.490;2022-07-29T15:04:40;28.90;45.20
51661;DHT22;37741;49.748;8.490;2022-07-29T15:07:08;28.90;44.50
51661;DHT22;37741;49.748;8.490;2022-07-29T15:09:34;28.90;44.40
51661;DHT22;37741;49.748;8.490;2022-07-29T15:11:59;29.00;44.50
51661;DHT22;37741;49.748;8.490;2022-07-29T15:14:27;29.00;44.30
51661;DHT22;37741;49.748;8.490;2022-07-29T15:16:55;29.00;44.60
51661;DHT22;37741;49.748;8.490;2022-07-29T15:19:21;29.00;44.80
51661;DHT22;37741;49.748;8.490;2022-07-29T15:21:47;29.00;44.10
51661;DHT22;37741;49.748;8.490;2022-07-29T15:24:12;29.00;44.30
51661;DHT22;37741;49.748;8.490;2022-07-29T15:26:38;29.00;44.60
51661;DHT22;37741;49.748;8.490;2022-07-29T15:29:04;29.10;44.50
51661;DHT22;37741;49.748;8.490;2022-07-29T15:31:29;29.10;44.40
51661;DHT22;37741;49.748;8.490;2022-07-29T15:33:55;29.10;44.40
51661;DHT22;37741;49.748;8.490;2022-07-29T15:36:20;29.10;44.30
51661;DHT22;37741;49.748;8.490;2022-07-29T15:38:46;29.20;44.50
51661;DHT22;37741;49.748;8.490;2022-07-29T15:41:14;29.20;44.50
51661;DHT22;37741;49.748;8.490;2022-07-29T15:43:43;29.20;44.70
51661;DHT22;37741;49.748;8.490;2022-07-29T15:46:13;29.30;44.50
51661;DHT22;37741;49.748;8.490;2022-07-29T15:48:58;29.30;44.50
51661;DHT22;37741;49.748;8.490;2022-07-29T15:51:23;29.30;44.20
51661;DHT22;37741;49.748;8.490;2022-07-29T15:53:49;29.40;44.50
51661;DHT22;37741;49.748;8.490;2022-07-29T15:56:15;29.40;44.20
51661;DHT22;37741;49.748;8.490;2022-07-29T15:58:40;29.50;44.10
51661;DHT22;37741;49.748;8.490;2022-07-29T16:01:06;29.50;43.90
51661;DHT22;37741;49.748;8.490;2022-07-29T16:03:31;29.60;43.30
51661;DHT22;37741;49.748;8.490;2022-07-29T16:05:57;29.60;43.50
51661;DHT22;37741;49.748;8.490;2022-07-29T16:08:23;29.60;43.70
51661;DHT22;37741;49.748;8.490;2022-07-29T16:10:48;29.60;43.90
51661;DHT22;37741;49.748;8.490;2022-07-29T16:13:14;29.60;44.10